createdAt,value
2018-03-29T00:01:08.349Z,99518
2018-03-29T00:03:36.702Z,99515
2018-03-29T00:06:05.338Z,99529
2018-03-29T00:08:33.648Z,99530
2018-03-29T00:11:01.938Z,99523
2018-03-29T00:13:30.347Z,99533
2018-03-29T00:16:00.106Z,99533
2018-03-29T00:18:29.367Z,99524
2018-03-29T00:20:57.749Z,99531
2018-03-29T00:23:25.999Z,99530
2018-03-29T00:25:55.115Z,99523
2018-03-29T00:28:23.645Z,99528
2018-03-29T00:30:52.023Z,99528
2018-03-29T00:33:20.348Z,99538
2018-03-29T00:35:48.661Z,99532
2018-03-29T00:38:16.921Z,99535
2018-03-29T00:40:45.535Z,99533
2018-03-29T00:43:13.844Z,99531
2018-03-29T00:45:43.077Z,99535
2018-03-29T00:48:12.503Z,99541
2018-03-29T00:50:40.747Z,99533
2018-03-29T00:53:26.887Z,99552
2018-03-29T00:55:55.566Z,99547
2018-03-29T00:58:23.958Z,99555
2018-03-29T01:00:52.226Z,99560
2018-03-29T01:03:20.483Z,99565
2018-03-29T01:05:49.888Z,99553
2018-03-29T01:08:18.685Z,99568
2018-03-29T01:10:47.179Z,99574
2018-03-29T01:13:15.545Z,99569
2018-03-29T01:15:43.838Z,99582
2018-03-29T01:18:12.343Z,99573
2018-03-29T01:20:41.374Z,99575
2018-03-29T01:23:09.817Z,99552
2018-03-29T01:25:38.426Z,99582
2018-03-29T01:28:06.956Z,99588
2018-03-29T01:30:35.249Z,99578
2018-03-29T01:33:04.336Z,99587
2018-03-29T01:35:32.653Z,99591
2018-03-29T01:38:01.214Z,99592
2018-03-29T01:40:29.743Z,99596
2018-03-29T01:42:58.025Z,99602
2018-03-29T01:45:26.378Z,99595
2018-03-29T01:47:54.728Z,99608
2018-03-29T01:50:23.023Z,99602
2018-03-29T01:52:51.342Z,99604
2018-03-29T01:55:19.618Z,99607
2018-03-29T01:57:47.959Z,99606
2018-03-29T02:00:16.304Z,99610
2018-03-29T02:02:44.725Z,99618
2018-03-29T02:05:13.504Z,99613
2018-03-29T02:07:41.885Z,99624
2018-03-29T02:10:10.932Z,99627
2018-03-29T02:12:40.008Z,99632
2018-03-29T02:15:09.075Z,99627
2018-03-29T02:17:37.416Z,99635
2018-03-29T02:20:05.874Z,99630
2018-03-29T02:22:34.134Z,99632
2018-03-29T02:25:02.469Z,99636
2018-03-29T02:27:30.773Z,99636
2018-03-29T02:29:59.205Z,99650
2018-03-29T02:32:28.399Z,99642
2018-03-29T02:34:57.656Z,99645
2018-03-29T02:37:25.926Z,99639
2018-03-29T02:39:54.283Z,99651
2018-03-29T02:42:22.783Z,99654
2018-03-29T02:44:51.163Z,99650
2018-03-29T02:47:19.454Z,99645
2018-03-29T02:49:47.710Z,99643
2018-03-29T02:52:16.104Z,99658
2018-03-29T02:54:44.372Z,99664
2018-03-29T02:57:12.794Z,99654
2018-03-29T02:59:41.455Z,99655
2018-03-29T03:02:09.900Z,99660
2018-03-29T03:04:39.974Z,99669
2018-03-29T03:07:10.275Z,99670
2018-03-29T03:09:38.572Z,99668
2018-03-29T03:12:07.598Z,99673
2018-03-29T03:14:35.955Z,99676
2018-03-29T03:17:04.286Z,99678
2018-03-29T03:19:32.918Z,99673
2018-03-29T03:22:01.492Z,99674
2018-03-29T03:24:30.659Z,99669
2018-03-29T03:26:59.048Z,99680
2018-03-29T03:29:27.404Z,99675
2018-03-29T03:31:55.703Z,99677
2018-03-29T03:34:23.983Z,99686
2018-03-29T03:36:53.084Z,99684
2018-03-29T03:39:22.124Z,99684
2018-03-29T03:41:50.418Z,99687
2018-03-29T03:44:18.897Z,99691
2018-03-29T03:46:47.193Z,99695
2018-03-29T03:49:15.554Z,99691
2018-03-29T03:51:43.970Z,99695
2018-03-29T03:54:13.114Z,99697
2018-03-29T03:56:41.479Z,99690
2018-03-29T03:59:09.959Z,99694
2018-03-29T04:01:38.407Z,99697
2018-03-29T04:04:07.460Z,99701
2018-03-29T04:06:35.982Z,99694
2018-03-29T04:09:05.268Z,99704
2018-03-29T04:11:33.595Z,99692
2018-03-29T04:14:02.340Z,99697
2018-03-29T04:16:30.627Z,99692
2018-03-29T04:18:58.922Z,99691
2018-03-29T04:21:27.252Z,99682
2018-03-29T04:23:55.635Z,99684
2018-03-29T04:26:23.925Z,99685
2018-03-29T04:28:52.993Z,99692
2018-03-29T04:31:21.245Z,99693
2018-03-29T04:33:49.513Z,99691
2018-03-29T04:36:17.822Z,99688
2018-03-29T04:38:46.097Z,99696
2018-03-29T04:41:14.418Z,99696
2018-03-29T04:43:42.738Z,99698
2018-03-29T04:46:11.160Z,99692
2018-03-29T04:48:40.245Z,99696
2018-03-29T04:51:09.339Z,99705
2018-03-29T04:53:37.637Z,99708
2018-03-29T04:56:05.952Z,99708
2018-03-29T04:58:34.250Z,99712
2018-03-29T05:01:03.282Z,99713
2018-03-29T05:03:32.353Z,99713
2018-03-29T05:06:01.358Z,99712
2018-03-29T05:08:29.804Z,99717
2018-03-29T05:10:58.088Z,99724
2018-03-29T05:13:26.368Z,99718
2018-03-29T05:15:54.647Z,99719
2018-03-29T05:18:22.978Z,99734
2018-03-29T05:20:51.239Z,99735
2018-03-29T05:23:19.619Z,99738
2018-03-29T05:25:47.988Z,99738
2018-03-29T05:28:17.032Z,99735
2018-03-29T05:30:45.531Z,99739
2018-03-29T05:33:14.002Z,99733
2018-03-29T05:35:42.308Z,99730
2018-03-29T05:38:12.628Z,99722
2018-03-29T05:40:41.850Z,99721
2018-03-29T05:43:10.130Z,99734
2018-03-29T05:45:38.448Z,99734
2018-03-29T05:48:06.776Z,99724
2018-03-29T05:50:35.050Z,99718
2018-03-29T05:53:03.374Z,99715
2018-03-29T05:55:31.794Z,99709
2018-03-29T05:58:01.088Z,99707
2018-03-29T06:00:30.294Z,99706
2018-03-29T06:02:59.407Z,99725
2018-03-29T06:05:29.074Z,99726
2018-03-29T06:07:58.500Z,99729
2018-03-29T06:10:28.719Z,99735
2018-03-29T06:12:58.898Z,99743
2018-03-29T06:15:33.469Z,99742
2018-03-29T06:18:02.698Z,99748
2018-03-29T06:20:31.203Z,99752
2018-03-29T06:23:00.349Z,99748
2018-03-29T06:25:28.743Z,99749
2018-03-29T06:27:57.254Z,99751
2018-03-29T06:30:25.639Z,99748
2018-03-29T06:32:53.899Z,99756
2018-03-29T06:35:22.280Z,99747
2018-03-29T06:37:50.889Z,99751
2018-03-29T06:40:19.303Z,99752
2018-03-29T06:42:47.699Z,99749
2018-03-29T06:45:16.424Z,99745
2018-03-29T06:47:45.539Z,99743
2018-03-29T06:50:13.991Z,99742
2018-03-29T06:52:42.450Z,99738
2018-03-29T06:55:10.790Z,99737
2018-03-29T06:57:40.004Z,99737
2018-03-29T07:00:08.521Z,99740
2018-03-29T07:02:37.371Z,99735
2018-03-29T07:05:06.674Z,99741
2018-03-29T07:07:35.001Z,99738
2018-03-29T07:10:03.531Z,99741
2018-03-29T07:12:32.038Z,99752
2018-03-29T07:15:00.510Z,99748
2018-03-29T07:17:28.847Z,99749
2018-03-29T07:19:57.944Z,99748
2018-03-29T07:22:26.324Z,99750
2018-03-29T07:24:54.619Z,99745
2018-03-29T07:27:23.818Z,99747
2018-03-29T07:29:53.576Z,99747
2018-03-29T07:32:22.345Z,99751
2018-03-29T07:34:50.915Z,99750
2018-03-29T07:37:19.534Z,99750
2018-03-29T07:39:47.851Z,99756
2018-03-29T07:42:17.040Z,99756
2018-03-29T07:44:46.270Z,99762
2018-03-29T07:47:14.531Z,99734
2018-03-29T07:49:43.775Z,99770
2018-03-29T07:52:12.141Z,99773
2018-03-29T07:54:40.492Z,99776
2018-03-29T07:57:08.888Z,99771
2018-03-29T07:59:37.200Z,99774
2018-03-29T08:02:06.402Z,99775
2018-03-29T08:04:37.312Z,99779
2018-03-29T08:07:05.738Z,99777
2018-03-29T08:09:34.806Z,99777
2018-03-29T08:12:03.122Z,99785
2018-03-29T08:14:32.155Z,99790
2018-03-29T08:17:00.504Z,99790
2018-03-29T08:19:28.810Z,99796
2018-03-29T08:21:57.257Z,99766
2018-03-29T08:24:25.571Z,99806
2018-03-29T08:26:54.076Z,99804
2018-03-29T08:29:22.486Z,99808
2018-03-29T08:31:51.585Z,99812
2018-03-29T08:34:19.901Z,99815
2018-03-29T08:36:48.297Z,99818
2018-03-29T08:39:16.756Z,99820
2018-03-29T08:41:45.195Z,99823
2018-03-29T08:44:13.714Z,99826
2018-03-29T08:46:42.055Z,99824
2018-03-29T08:49:11.275Z,99827
2018-03-29T08:51:39.612Z,99829
2018-03-29T08:54:08.009Z,99838
2018-03-29T08:56:36.420Z,99835
2018-03-29T08:59:04.895Z,99834
2018-03-29T09:01:33.605Z,99834
2018-03-29T09:04:01.890Z,99836
2018-03-29T09:06:30.194Z,99837
2018-03-29T09:08:59.275Z,99842
2018-03-29T09:11:27.559Z,99841
2018-03-29T09:13:56.727Z,99848
2018-03-29T09:16:25.160Z,99843
2018-03-29T09:18:53.466Z,99838
2018-03-29T09:21:21.803Z,99848
2018-03-29T09:23:50.986Z,99853
2018-03-29T09:26:19.366Z,99855
2018-03-29T09:28:47.708Z,99849
2018-03-29T09:31:16.057Z,99848
2018-03-29T09:33:44.417Z,99846
2018-03-29T09:36:12.852Z,99846
2018-03-29T09:38:41.131Z,99853
2018-03-29T09:41:09.491Z,99852
2018-03-29T09:43:37.820Z,99853
2018-03-29T09:46:06.912Z,99853
2018-03-29T09:48:36.100Z,99850
2018-03-29T09:51:04.495Z,99849
2018-03-29T09:53:33.687Z,99853
2018-03-29T09:56:02.794Z,99854
2018-03-29T09:58:32.014Z,99851
2018-03-29T10:01:05.949Z,99860
2018-03-29T10:03:45.045Z,99853
2018-03-29T10:06:33.283Z,99855
2018-03-29T10:09:01.653Z,99847
2018-03-29T10:11:30.105Z,99855
2018-03-29T10:14:00.390Z,99855
2018-03-29T10:16:28.717Z,99857
2018-03-29T10:18:57.878Z,99853
2018-03-29T10:21:26.329Z,99854
2018-03-29T10:23:54.647Z,99860
2018-03-29T10:26:22.980Z,99855
2018-03-29T10:28:51.330Z,99844
2018-03-29T10:31:20.403Z,99852
2018-03-29T10:33:49.530Z,99853
2018-03-29T10:38:52.665Z,99861
2018-03-29T10:41:20.981Z,99851
2018-03-29T10:43:49.433Z,99851
2018-03-29T10:46:17.801Z,99846
2018-03-29T10:48:46.166Z,99849
2018-03-29T10:51:16.078Z,99845
2018-03-29T10:53:44.758Z,99845
2018-03-29T10:56:14.079Z,99855
2018-03-29T10:58:42.655Z,99845
2018-03-29T11:01:11.316Z,99842
2018-03-29T11:03:40.107Z,99841
2018-03-29T11:06:08.504Z,99830
2018-03-29T11:08:36.895Z,99835
2018-03-29T11:11:05.231Z,99835
2018-03-29T11:13:34.463Z,99826
2018-03-29T11:16:02.835Z,99821
2018-03-29T11:18:31.435Z,99826
2018-03-29T11:20:59.761Z,99785
2018-03-29T11:23:29.185Z,99819
2018-03-29T11:25:57.770Z,99819
2018-03-29T11:28:26.332Z,99814
2018-03-29T11:30:55.661Z,99822
2018-03-29T11:33:24.018Z,99821
2018-03-29T11:35:52.625Z,99810
2018-03-29T11:38:20.926Z,99814
2018-03-29T11:40:49.390Z,99816
2018-03-29T11:43:17.890Z,99808
2018-03-29T11:45:46.248Z,99809
2018-03-29T11:48:14.565Z,99818
2018-03-29T11:50:42.980Z,99811
2018-03-29T11:53:11.285Z,99805
2018-03-29T11:55:39.591Z,99802
2018-03-29T11:58:08.132Z,99804
2018-03-29T12:00:36.478Z,99803
2018-03-29T12:03:05.746Z,99792
2018-03-29T12:05:34.048Z,99800
2018-03-29T12:08:03.200Z,99787
2018-03-29T12:10:31.552Z,99773
2018-03-29T12:12:59.942Z,99779
2018-03-29T12:15:28.327Z,99787
2018-03-29T12:17:56.824Z,99779
2018-03-29T12:20:25.192Z,99780
2018-03-29T12:22:53.526Z,99779
2018-03-29T12:25:23.765Z,99782
2018-03-29T12:27:52.246Z,99788
2018-03-29T12:30:20.645Z,99785
2018-03-29T12:32:49.197Z,99793
2018-03-29T12:35:17.545Z,99786
2018-03-29T12:37:46.663Z,99789
2018-03-29T12:40:15.786Z,99793
2018-03-29T12:42:44.482Z,99786
2018-03-29T12:45:12.935Z,99785
2018-03-29T12:47:41.246Z,99780
2018-03-29T12:50:09.595Z,99772
2018-03-29T12:52:38.236Z,99763
2018-03-29T12:55:24.066Z,99768
2018-03-29T12:58:07.161Z,99770
2018-03-29T13:00:35.472Z,99765
2018-03-29T13:03:03.891Z,99780
2018-03-29T13:05:32.419Z,99795
2018-03-29T13:08:00.971Z,99820
2018-03-29T13:10:30.073Z,99834
2018-03-29T13:12:59.386Z,99832
2018-03-29T13:15:28.636Z,99843
2018-03-29T13:17:56.967Z,99850
2018-03-29T13:20:26.074Z,99875
2018-03-29T13:22:54.409Z,99869
2018-03-29T13:25:23.578Z,99887
2018-03-29T13:27:52.080Z,99883
2018-03-29T13:30:20.515Z,99864
2018-03-29T13:32:48.797Z,99860
2018-03-29T13:35:17.150Z,99864
2018-03-29T13:37:45.649Z,99859
2018-03-29T13:40:13.979Z,99868
2018-03-29T13:42:42.367Z,99873
2018-03-29T13:45:10.750Z,99859
2018-03-29T13:47:39.826Z,99841
2018-03-29T13:50:08.150Z,99830
2018-03-29T13:52:36.451Z,99823
2018-03-29T13:55:04.745Z,99822
2018-03-29T13:57:33.211Z,99813
2018-03-29T14:00:02.002Z,99809
2018-03-29T14:02:30.366Z,99806
2018-03-29T14:04:58.739Z,99804
2018-03-29T14:07:27.229Z,99797
2018-03-29T14:09:55.544Z,99797
2018-03-29T14:12:24.104Z,99801
2018-03-29T14:14:52.493Z,99794
2018-03-29T14:17:20.850Z,99791
2018-03-29T14:19:49.192Z,99786
2018-03-29T14:22:17.644Z,99790
2018-03-29T14:24:45.977Z,99786
2018-03-29T14:27:14.408Z,99787
2018-03-29T14:29:44.661Z,99793
2018-03-29T14:32:13.324Z,99798
2018-03-29T14:34:41.836Z,99800
2018-03-29T14:37:10.408Z,99803
2018-03-29T14:39:38.724Z,99809
2018-03-29T14:42:08.125Z,99802
2018-03-29T14:44:36.757Z,99814
2018-03-29T14:47:06.132Z,99836
2018-03-29T14:49:35.663Z,99857
2018-03-29T14:52:04.012Z,99840
2018-03-29T14:54:32.353Z,99842
2018-03-29T14:57:00.966Z,99849
2018-03-29T14:59:29.308Z,99845
2018-03-29T15:01:58.117Z,99846
2018-03-29T15:04:26.413Z,99844
2018-03-29T15:06:54.860Z,99827
2018-03-29T15:09:23.605Z,99833
2018-03-29T15:11:52.777Z,99847
2018-03-29T15:14:21.233Z,99831
2018-03-29T15:16:49.639Z,99829
2018-03-29T15:19:18.049Z,99824
2018-03-29T15:21:46.659Z,99814
2018-03-29T15:24:14.943Z,99812
2018-03-29T15:26:43.276Z,99806
2018-03-29T15:29:12.473Z,99805
2018-03-29T15:31:41.612Z,99797
2018-03-29T15:34:11.846Z,99804
2018-03-29T15:36:40.598Z,99807
2018-03-29T15:39:09.065Z,99802
2018-03-29T15:41:38.192Z,99799
2018-03-29T15:44:06.708Z,99789
2018-03-29T15:46:35.102Z,99788
2018-03-29T15:49:03.431Z,99791
2018-03-29T15:51:31.792Z,99796
2018-03-29T15:54:00.211Z,99799
2018-03-29T15:56:28.670Z,99808
2018-03-29T15:58:57.276Z,99805
2018-03-29T16:01:25.647Z,99799
2018-03-29T16:03:53.990Z,99801
2018-03-29T16:06:22.325Z,99796
2018-03-29T16:08:50.759Z,99792
2018-03-29T16:11:20.218Z,99787
2018-03-29T16:13:49.442Z,99787
2018-03-29T16:16:18.054Z,99788
2018-03-29T16:18:46.449Z,99769
2018-03-29T16:21:14.974Z,99772
2018-03-29T16:23:44.575Z,99766
2018-03-29T16:26:14.185Z,99765
2018-03-29T16:28:43.291Z,99764
2018-03-29T16:31:11.614Z,99762
2018-03-29T16:33:40.142Z,99766
2018-03-29T16:36:09.775Z,99771
2018-03-29T16:38:38.151Z,99778
2018-03-29T16:41:06.524Z,99775
2018-03-29T16:43:34.945Z,99778
2018-03-29T16:46:04.284Z,99779
2018-03-29T16:48:33.491Z,99778
2018-03-29T16:51:02.841Z,99778
2018-03-29T16:53:31.285Z,99779
2018-03-29T16:55:59.776Z,99777
2018-03-29T16:58:28.433Z,99782
2018-03-29T17:00:57.985Z,99789
2018-03-29T17:03:27.488Z,99784
2018-03-29T17:05:56.174Z,99783
2018-03-29T17:08:26.328Z,99784
2018-03-29T17:10:55.115Z,99784
2018-03-29T17:13:24.274Z,99783
2018-03-29T17:15:52.965Z,99782
2018-03-29T17:18:21.461Z,99776
2018-03-29T17:20:50.354Z,99785
2018-03-29T17:23:18.917Z,99787
2018-03-29T17:25:47.418Z,99780
2018-03-29T17:28:16.571Z,99780
2018-03-29T17:30:45.166Z,99785
2018-03-29T17:33:13.478Z,99794
2018-03-29T17:35:41.900Z,99794
2018-03-29T17:38:10.240Z,99798
2018-03-29T17:40:39.404Z,99806
2018-03-29T17:43:07.802Z,99810
2018-03-29T17:45:36.147Z,99810
2018-03-29T17:48:04.589Z,99810
2018-03-29T17:50:33.859Z,99812
2018-03-29T17:53:02.304Z,99817
2018-03-29T17:55:30.693Z,99818
2018-03-29T17:57:59.113Z,99824
2018-03-29T18:00:27.678Z,99815
2018-03-29T18:02:57.785Z,99806
2018-03-29T18:05:26.230Z,99803
2018-03-29T18:07:54.707Z,99809
2018-03-29T18:10:23.094Z,99821
2018-03-29T18:12:51.679Z,99825
2018-03-29T18:15:20.270Z,99831
2018-03-29T18:17:48.717Z,99838
2018-03-29T18:20:17.274Z,99838
2018-03-29T18:22:46.519Z,99848
2018-03-29T18:25:14.914Z,99855
2018-03-29T18:27:43.286Z,99851
2018-03-29T18:30:12.013Z,99860
2018-03-29T18:32:41.242Z,99861
2018-03-29T18:35:09.760Z,99860
2018-03-29T18:37:38.163Z,99866
2018-03-29T18:40:06.553Z,99866
2018-03-29T18:42:35.754Z,99864
2018-03-29T18:45:05.082Z,99866
2018-03-29T18:47:33.584Z,99870
2018-03-29T18:50:01.969Z,99874
2018-03-29T18:52:30.477Z,99872
2018-03-29T18:54:58.861Z,99872
2018-03-29T18:57:28.206Z,99870
2018-03-29T18:59:56.622Z,99871
2018-03-29T19:02:26.296Z,99873
2018-03-29T19:04:54.849Z,99874
2018-03-29T19:07:23.217Z,99870
2018-03-29T19:09:51.734Z,99870
2018-03-29T19:12:20.296Z,99869
2018-03-29T19:14:48.642Z,99875
2018-03-29T19:17:17.902Z,99872
2018-03-29T19:19:46.272Z,99876
2018-03-29T19:22:14.721Z,99878
2018-03-29T19:24:43.284Z,99881
2018-03-29T19:27:12.948Z,99885
2018-03-29T19:29:41.282Z,99884
2018-03-29T19:32:09.758Z,99884
2018-03-29T19:34:38.454Z,99883
2018-03-29T19:37:06.823Z,99889
2018-03-29T19:39:35.329Z,99887
2018-03-29T19:42:03.698Z,99885
2018-03-29T19:44:32.329Z,99873
2018-03-29T19:47:00.677Z,99892
2018-03-29T19:49:29.032Z,99889
2018-03-29T19:51:57.409Z,99895
2018-03-29T19:54:25.993Z,99892
2018-03-29T19:56:54.386Z,99894
2018-03-29T19:59:22.837Z,99897
2018-03-29T20:01:51.220Z,99890
2018-03-29T20:04:19.564Z,99893
2018-03-29T20:06:48.117Z,99890
2018-03-29T20:09:16.653Z,99887
2018-03-29T20:11:45.201Z,99888
2018-03-29T20:14:13.662Z,99889
2018-03-29T20:16:42.071Z,99889
2018-03-29T20:19:10.410Z,99883
2018-03-29T20:21:38.910Z,99879
2018-03-29T20:24:07.357Z,99882
2018-03-29T20:26:37.146Z,99884
2018-03-29T20:29:05.748Z,99887
2018-03-29T20:31:34.122Z,99888
2018-03-29T20:34:02.492Z,99884
2018-03-29T20:36:31.044Z,99881
2018-03-29T20:38:59.493Z,99883
2018-03-29T20:41:27.957Z,99878
2018-03-29T20:43:56.474Z,99878
2018-03-29T20:46:24.958Z,99881
2018-03-29T20:48:53.459Z,99882
2018-03-29T20:51:22.840Z,99876
2018-03-29T20:53:51.398Z,99877
2018-03-29T20:56:19.912Z,99876
2018-03-29T20:58:48.475Z,99872
2018-03-29T21:01:18.471Z,99870
2018-03-29T21:03:46.969Z,99868
2018-03-29T21:06:15.541Z,99868
2018-03-29T21:08:43.970Z,99864
2018-03-29T21:11:13.154Z,99859
2018-03-29T21:13:42.385Z,99874
2018-03-29T21:16:10.954Z,99875
2018-03-29T21:18:39.472Z,99872
2018-03-29T21:21:07.952Z,99879
2018-03-29T21:23:36.415Z,99884
2018-03-29T21:26:04.788Z,99885
2018-03-29T21:28:33.253Z,99890
2018-03-29T21:31:02.682Z,99890
2018-03-29T21:33:31.142Z,99889
2018-03-29T21:35:59.642Z,99888
2018-03-29T21:38:28.268Z,99893
2018-03-29T21:40:56.628Z,99894
2018-03-29T21:43:25.001Z,99898
2018-03-29T21:45:53.474Z,99894
2018-03-29T21:48:21.800Z,99888
2018-03-29T21:50:51.029Z,99891
2018-03-29T21:53:19.591Z,99889
2018-03-29T21:55:48.766Z,99890
2018-03-29T21:58:17.081Z,99888
2018-03-29T22:00:46.280Z,99886
2018-03-29T22:03:14.615Z,99889
2018-03-29T22:05:43.064Z,99886
2018-03-29T22:08:11.362Z,99889
2018-03-29T22:10:40.000Z,99881
2018-03-29T22:13:08.339Z,99884
2018-03-29T22:15:36.818Z,99882
2018-03-29T22:18:05.132Z,99884
2018-03-29T22:20:33.471Z,99878
2018-03-29T22:23:01.823Z,99874
2018-03-29T22:25:30.255Z,99875
2018-03-29T22:27:58.619Z,99870
2018-03-29T22:30:27.236Z,99869
2018-03-29T22:32:55.564Z,99870
2018-03-29T22:35:23.921Z,99867
2018-03-29T22:37:52.247Z,99869
2018-03-29T22:40:21.363Z,99874
2018-03-29T22:42:49.689Z,99866
2018-03-29T22:45:18.042Z,99861
2018-03-29T22:47:46.816Z,99858
2018-03-29T22:50:15.202Z,99866
2018-03-29T22:52:43.523Z,99867
2018-03-29T22:55:11.960Z,99864
2018-03-29T22:57:40.312Z,99859
2018-03-29T23:00:09.848Z,99864
2018-03-29T23:02:38.406Z,99863
2018-03-29T23:05:06.719Z,99870
2018-03-29T23:07:35.066Z,99867
2018-03-29T23:10:03.599Z,99864
2018-03-29T23:12:32.108Z,99872
2018-03-29T23:15:01.461Z,99869
2018-03-29T23:17:29.863Z,99867
2018-03-29T23:19:58.228Z,99869
2018-03-29T23:22:26.583Z,99868
2018-03-29T23:24:54.947Z,99870
2018-03-29T23:27:23.342Z,99871
2018-03-29T23:29:51.697Z,99862
2018-03-29T23:32:20.100Z,99865
2018-03-29T23:34:48.547Z,99859
2018-03-29T23:37:16.882Z,99857
2018-03-29T23:39:45.164Z,99859
2018-03-29T23:42:13.537Z,99853
2018-03-29T23:44:41.990Z,99852
2018-03-29T23:47:10.427Z,99852
2018-03-29T23:49:39.704Z,99850
2018-03-29T23:52:08.141Z,99848
2018-03-29T23:54:36.426Z,99848
2018-03-29T23:57:07.752Z,99847
2018-03-29T23:59:36.049Z,99849
